Time;durP1;ratioP1;P1;durP2;ratioP2;P2;SDS_P1;SDS_P2;PMS_P1;PMS_P2;Temp;Humidity;BMP_temperature;BMP_pressure;BME280_temperature;BME280_humidity;BME280_pressure;Samples;Min_cycle;Max_cycle;Signal;HPM_P1;HPM_P2
2023/01/12 00:01:59;;;;;;;7.28;2.15;;;;;;;10.48;69.15;101024.03;5063579;28;20045;-66
2023/01/12 00:04:29;;;;;;;8.45;1.90;;;;;;;10.46;69.22;101010.00;5061203;28;20060;-64
2023/01/12 00:06:57;;;;;;;9.05;1.95;;;;;;;10.46;69.39;101015.38;5065315;28;20045;-64
2023/01/12 00:09:26;;;;;;;7.47;1.88;;;;;;;10.44;69.27;101013.72;5066964;28;20045;-65
2023/01/12 00:11:55;;;;;;;6.32;1.90;;;;;;;10.46;69.47;101010.00;5063318;28;20083;-65
2023/01/12 00:14:23;;;;;;;8.15;1.95;;;;;;;10.44;69.35;101002.16;5070882;28;20552;-64
2023/01/12 00:16:50;;;;;;;7.15;2.58;;;;;;;10.43;69.31;101003.19;5062654;28;20053;-64
2023/01/12 00:19:20;;;;;;;7.70;1.80;;;;;;;10.42;69.48;100994.31;5056810;28;20655;-64
2023/01/12 00:22:01;;;;;;;8.38;2.00;;;;;;;10.43;69.40;100995.13;5067558;28;20056;-64
2023/01/12 00:24:30;;;;;;;10.48;2.95;;;;;;;10.40;69.77;100988.31;5059795;28;20148;-65
2023/01/12 00:27:00;;;;;;;6.30;1.50;;;;;;;10.44;69.39;100992.22;5072100;28;20044;-64
2023/01/12 00:29:28;;;;;;;9.43;1.90;;;;;;;10.45;69.57;100998.41;5065648;28;20048;-64
2023/01/12 00:31:57;;;;;;;7.88;2.55;;;;;;;10.45;69.45;100990.38;5064406;28;20497;-64
2023/01/12 00:34:26;;;;;;;10.00;2.17;;;;;;;10.44;69.62;100999.47;5062280;28;20053;-64
2023/01/12 00:36:56;;;;;;;8.82;2.22;;;;;;;10.43;69.55;100981.69;5063167;28;20100;-64
2023/01/12 00:39:24;;;;;;;7.72;1.67;;;;;;;10.41;69.68;100979.22;5071980;28;20047;-64
2023/01/12 00:47:24;;;;;;;8.75;1.85;;;;;;;10.42;69.70;100974.69;5066402;28;20084;-65
2023/01/12 00:49:52;;;;;;;10.18;2.92;;;;;;;10.42;69.65;100966.63;5072862;28;20052;-65
2023/01/12 00:52:21;;;;;;;8.32;1.83;;;;;;;10.40;69.91;100966.84;5070781;28;20076;-64
2023/01/12 00:54:58;;;;;;;10.30;1.90;;;;;;;10.40;69.88;100968.72;5064771;28;20041;-64
2023/01/12 00:57:26;;;;;;;7.43;2.55;;;;;;;10.39;69.96;100961.72;5061114;28;20055;-64
2023/01/12 00:59:57;;;;;;;12.35;2.92;;;;;;;10.40;70.01;100950.72;5068065;28;20051;-65
2023/01/12 01:02:26;;;;;;;8.43;2.58;;;;;;;10.40;70.10;100953.41;5060498;28;20045;-65
2023/01/12 01:04:54;;;;;;;9.65;2.35;;;;;;;10.40;70.11;100952.59;5062389;28;20055;-65
2023/01/12 01:07:22;;;;;;;7.70;2.38;;;;;;;10.39;70.09;100941.03;5063861;28;20056;-65
2023/01/12 01:09:50;;;;;;;9.32;1.98;;;;;;;10.37;70.09;100921.63;5062215;28;20051;-65
2023/01/12 01:12:18;;;;;;;8.45;2.28;;;;;;;10.40;70.25;100928.44;5064751;28;20087;-66
2023/01/12 01:14:46;;;;;;;12.13;3.05;;;;;;;10.38;70.14;100923.28;5066260;28;20060;-65
2023/01/12 01:17:15;;;;;;;8.73;2.40;;;;;;;10.39;70.24;100919.53;5062466;28;20040;-65
2023/01/12 01:19:43;;;;;;;10.75;2.58;;;;;;;10.38;70.28;100920.59;5061715;28;20076;-65
2023/01/12 01:22:12;;;;;;;11.32;2.65;;;;;;;10.40;70.32;100915.00;5069161;28;20091;-65
2023/01/12 01:24:40;;;;;;;6.40;2.00;;;;;;;10.41;70.59;100913.91;5062957;28;20056;-66
2023/01/12 01:27:08;;;;;;;9.45;2.15;;;;;;;10.40;70.27;100913.09;5062759;28;20110;-65
2023/01/12 01:29:35;;;;;;;10.70;2.50;;;;;;;10.41;70.40;100895.13;5061728;28;20055;-65
2023/01/12 01:32:03;;;;;;;9.32;2.45;;;;;;;10.41;70.44;100912.06;5069677;28;20052;-64
2023/01/12 01:34:32;;;;;;;13.77;2.70;;;;;;;10.39;70.29;100907.97;5058362;28;20051;-65
2023/01/12 01:37:00;;;;;;;9.93;2.35;;;;;;;10.41;70.42;100906.69;5072986;28;20057;-65
2023/01/12 01:39:28;;;;;;;11.80;2.90;;;;;;;10.41;70.32;100914.75;5060802;28;20051;-65
2023/01/12 01:41:55;;;;;;;17.70;3.90;;;;;;;10.41;70.53;100912.06;5065040;28;20045;-65
2023/01/12 01:44:50;;;;;;;10.43;2.58;;;;;;;10.40;70.53;100921.16;5067163;28;20112;-65
2023/01/12 01:47:26;;;;;;;13.35;3.22;;;;;;;10.41;70.62;100917.44;5067168;28;20120;-64
2023/01/12 01:49:59;;;;;;;10.35;2.17;;;;;;;10.40;70.46;100909.63;5059817;28;20048;-65
2023/01/12 01:52:33;;;;;;;11.23;3.60;;;;;;;10.41;70.60;100900.50;5062580;28;20110;-65
2023/01/12 01:55:05;;;;;;;6.75;2.70;;;;;;;10.38;70.68;100882.16;5068505;28;20048;-65
2023/01/12 01:57:39;;;;;;;11.30;2.60;;;;;;;10.37;70.62;100873.28;5057222;28;20109;-65
2023/01/12 02:00:11;;;;;;;6.88;2.80;;;;;;;10.37;70.72;100862.53;5065352;28;20108;-65
2023/01/12 02:02:39;;;;;;;9.95;2.95;;;;;;;10.37;70.78;100862.53;5055001;28;20047;-65
2023/01/12 02:05:11;;;;;;;12.43;3.33;;;;;;;10.38;70.67;100869.53;5061644;28;20075;-64
2023/01/12 02:07:40;;;;;;;11.98;2.63;;;;;;;10.38;70.72;100856.09;5061637;28;20675;-65
2023/01/12 02:10:09;;;;;;;10.65;2.22;;;;;;;10.37;70.79;100850.97;5066610;28;20047;-65
2023/01/12 02:18:19;;;;;;;11.52;3.40;;;;;;;10.36;70.77;100847.44;5065272;28;20051;-65
2023/01/12 02:20:56;;;;;;;12.00;3.08;;;;;;;10.36;70.65;100847.44;5058854;28;20072;-65
2023/01/12 02:23:52;;;;;;;12.18;2.50;;;;;;;10.38;70.95;100842.69;5058506;28;20053;-65
2023/01/12 02:26:58;;;;;;;9.98;2.47;;;;;;;10.35;70.87;100853.88;5064050;28;20131;-65
2023/01/12 02:29:51;;;;;;;8.52;2.35;;;;;;;10.35;70.61;100836.91;5059933;28;20055;-65
2023/01/12 02:32:29;;;;;;;13.60;3.08;;;;;;;10.35;70.74;100835.06;5036778;28;20349;-65
2023/01/12 02:35:07;;;;;;;12.45;2.35;;;;;;;10.37;70.92;100834.84;5062240;28;20052;-65
2023/01/12 02:37:42;;;;;;;14.00;2.80;;;;;;;10.36;70.81;100822.44;5060933;28;20072;-65
2023/01/12 02:40:16;;;;;;;12.40;2.50;;;;;;;10.35;70.86;100816.25;5061237;28;20125;-65
2023/01/12 02:42:53;;;;;;;13.95;3.08;;;;;;;10.35;71.12;100810.06;5055531;28;20076;-65
2023/01/12 02:45:32;;;;;;;11.38;2.58;;;;;;;10.35;70.93;100804.69;5050552;28;20079;-65
2023/01/12 02:48:09;;;;;;;10.10;2.50;;;;;;;10.36;71.26;100791.03;5064813;28;20113;-65
2023/01/12 02:50:43;;;;;;;12.48;2.88;;;;;;;10.37;70.91;100800.72;5060852;28;20113;-65
2023/01/12 02:53:17;;;;;;;12.82;3.85;;;;;;;10.37;71.10;100794.53;5068957;28;20049;-64
2023/01/12 02:55:46;;;;;;;14.65;3.80;;;;;;;10.36;71.02;100787.53;5064887;28;20044;-65
2023/01/12 02:58:18;;;;;;;12.50;3.60;;;;;;;10.36;71.04;100791.03;5070929;28;20049;-65
2023/01/12 03:00:49;;;;;;;11.73;3.00;;;;;;;10.34;71.05;100781.56;5062904;28;20060;-65
2023/01/12 03:03:19;;;;;;;10.80;3.20;;;;;;;10.37;70.99;100778.41;5069422;28;20047;-64
2023/01/12 03:05:47;;;;;;;14.68;2.72;;;;;;;10.38;70.97;100772.00;5066935;28;20106;-65
2023/01/12 03:08:20;;;;;;;8.00;2.38;;;;;;;10.38;70.99;100766.63;5072375;28;20069;-65
2023/01/12 03:10:59;;;;;;;12.85;3.70;;;;;;;10.38;71.14;100754.03;5066515;28;20217;-65
2023/01/12 03:13:29;;;;;;;12.02;2.80;;;;;;;10.37;71.13;100763.13;5066410;28;20113;-65
2023/01/12 03:15:59;;;;;;;7.65;2.45;;;;;;;10.36;70.99;100760.66;5068238;28;20164;-65
2023/01/12 03:18:32;;;;;;;11.02;2.08;;;;;;;10.37;71.39;100754.25;5062435;28;20467;-65
2023/01/12 03:21:05;;;;;;;8.75;2.35;;;;;;;10.37;71.06;100740.81;5059264;28;20060;-65
2023/01/12 03:23:38;;;;;;;8.80;2.47;;;;;;;10.36;71.30;100723.88;5067318;28;20055;-65
2023/01/12 03:26:07;;;;;;;14.45;2.92;;;;;;;10.34;71.05;100730.50;5063781;28;20063;-65
2023/01/12 03:28:42;;;;;;;15.70;2.72;;;;;;;10.33;71.09;100718.94;5077069;28;20105;-64
2023/01/12 03:31:12;;;;;;;11.35;2.45;;;;;;;10.35;71.36;100722.22;5063639;28;20049;-64
2023/01/12 03:33:43;;;;;;;5.97;2.00;;;;;;;10.33;71.15;100724.31;5066976;28;20049;-65
2023/01/12 03:36:19;;;;;;;10.60;2.53;;;;;;;10.32;71.20;100711.13;5056942;28;20063;-65
2023/01/12 03:38:58;;;;;;;10.77;2.55;;;;;;;10.33;71.63;100721.63;5064015;28;20072;-65
2023/01/12 03:41:35;;;;;;;13.07;2.75;;;;;;;10.34;71.51;100704.47;5069599;28;20686;-65
2023/01/12 03:44:05;;;;;;;;;;;;;;;10.33;71.53;100721.63;5062649;28;20120;-65
2023/01/12 03:46:39;;;;;;;8.93;2.25;;;;;;;10.33;71.44;100710.06;5072440;28;19920;-65
2023/01/12 03:49:15;;;;;;;8.07;2.72;;;;;;;10.32;71.33;100695.81;5066678;28;20049;-66
2023/01/12 03:51:47;;;;;;;12.40;2.75;;;;;;;10.31;71.45;100683.44;5061488;28;20041;-65
2023/01/12 03:54:16;;;;;;;13.27;3.03;;;;;;;10.31;71.88;100679.91;5072149;28;20114;-65
2023/01/12 03:56:46;;;;;;;9.32;2.33;;;;;;;10.32;71.82;100679.69;5063294;28;20139;-64
2023/01/12 03:59:15;;;;;;;10.80;2.53;;;;;;;10.23;71.52;100616.59;5070760;28;20055;-65
2023/01/12 04:01:43;;;;;;;11.73;2.40;;;;;;;10.29;71.82;100621.06;5072603;28;20045;-65
2023/01/12 04:04:12;;;;;;;8.50;1.92;;;;;;;10.32;71.52;100625.16;5068963;28;20135;-65
2023/01/12 04:06:40;;;;;;;8.27;1.92;;;;;;;10.32;71.47;100614.41;5063933;28;20072;-65
2023/01/12 04:09:08;;;;;;;10.18;2.50;;;;;;;10.33;71.64;100608.00;5065625;28;20179;-65
2023/01/12 04:14:18;;;;;;;6.88;2.03;;;;;;;10.35;71.25;100600.53;5055300;28;20049;-65
2023/01/12 04:16:46;;;;;;;8.00;2.33;;;;;;;10.32;71.64;100615.22;5064947;28;20052;-64
2023/01/12 04:19:15;;;;;;;8.10;2.30;;;;;;;10.30;71.73;100592.31;5070765;28;20097;-65
2023/01/12 04:24:28;;;;;;;7.80;2.20;;;;;;;10.31;71.59;100581.34;5066066;28;20076;-65
2023/01/12 04:26:55;;;;;;;5.50;1.60;;;;;;;10.32;71.87;100582.19;5066032;28;20115;-65
2023/01/12 04:29:23;;;;;;;8.60;2.05;;;;;;;10.30;71.84;100593.16;5069301;28;20125;-65
2023/01/12 04:31:51;;;;;;;9.07;2.80;;;;;;;10.30;71.77;100579.72;5061974;28;20072;-65
2023/01/12 04:34:20;;;;;;;11.18;2.88;;;;;;;10.29;71.74;100586.13;5063391;28;20051;-65
2023/01/12 04:36:48;;;;;;;8.07;1.80;;;;;;;10.31;71.80;100573.31;5060465;28;20049;-65
2023/01/12 04:39:16;;;;;;;8.50;2.20;;;;;;;10.31;71.97;100573.31;5063617;28;20088;-65
2023/01/12 04:41:43;;;;;;;12.65;3.70;;;;;;;10.33;72.16;100556.97;5063670;28;20057;-65
2023/01/12 04:44:11;;;;;;;7.60;2.20;;;;;;;10.33;71.90;100552.41;5066367;28;20503;-65
2023/01/12 04:46:39;;;;;;;10.52;2.35;;;;;;;10.35;71.79;100530.69;5062134;28;20076;-64
2023/01/12 04:49:07;;;;;;;11.93;3.10;;;;;;;10.33;71.91;100536.28;5061000;28;20080;-64
2023/01/12 04:51:36;;;;;;;9.82;2.08;;;;;;;10.34;71.93;100532.56;5063455;28;20052;-64
2023/01/12 04:54:04;;;;;;;8.20;2.33;;;;;;;10.33;72.12;100530.09;5065449;28;20084;-64
2023/01/12 04:56:32;;;;;;;8.25;2.28;;;;;;;10.33;72.04;100525.53;5074837;28;20048;-64
2023/01/12 04:59:00;;;;;;;12.45;2.05;;;;;;;10.30;71.92;100515.25;5061408;28;20095;-65
2023/01/12 05:01:29;;;;;;;9.98;2.45;;;;;;;10.33;71.90;100509.44;5062112;28;20045;-64
2023/01/12 05:03:59;;;;;;;7.93;2.50;;;;;;;10.33;71.84;100508.59;5062335;28;20045;-65
2023/01/12 05:06:28;;;;;;;9.90;2.53;;;;;;;10.31;72.02;100486.53;5066498;28;20052;-65
2023/01/12 05:11:42;;;;;;;12.23;2.40;;;;;;;10.33;72.22;100517.47;5061641;28;20473;-64
2023/01/12 05:14:09;;;;;;;7.50;3.20;;;;;;;10.31;72.28;100518.75;5057603;28;20307;-66
2023/01/12 05:16:37;;;;;;;8.57;2.10;;;;;;;10.32;72.12;100520.41;5072466;28;20044;-65
2023/01/12 05:19:05;;;;;;;13.27;2.63;;;;;;;10.30;72.26;100499.13;5068010;28;20059;-64
2023/01/12 05:21:33;;;;;;;10.95;2.55;;;;;;;10.30;71.98;100493.78;5065205;28;20104;-64
2023/01/12 05:24:02;;;;;;;10.43;3.15;;;;;;;10.28;72.10;100493.19;5064355;28;20084;-65
2023/01/12 05:26:30;;;;;;;9.13;2.40;;;;;;;10.28;72.20;100498.53;5062549;28;20395;-64
2023/01/12 05:28:57;;;;;;;9.32;2.20;;;;;;;10.28;72.31;100486.97;5062364;28;20131;-65
2023/01/12 05:31:25;;;;;;;10.98;1.85;;;;;;;10.28;72.23;100474.38;5061969;28;20056;-64
2023/01/12 05:33:53;;;;;;;9.63;2.47;;;;;;;10.29;72.06;100467.97;5062669;28;20115;-64
2023/01/12 05:36:20;;;;;;;12.75;2.50;;;;;;;10.32;72.16;100485.47;5062868;28;20090;-65
2023/01/12 05:38:48;;;;;;;8.75;2.28;;;;;;;10.29;72.32;100494.81;5070863;28;20107;-65
2023/01/12 05:41:17;;;;;;;9.68;2.58;;;;;;;10.29;72.38;100461.78;5061323;28;20053;-64
2023/01/12 05:43:50;;;;;;;9.15;2.55;;;;;;;10.28;72.38;100482.44;5070228;28;20054;-65
2023/01/12 05:46:20;;;;;;;6.30;2.05;;;;;;;10.27;72.41;100467.38;5069320;28;20075;-65
2023/01/12 05:48:48;;;;;;;8.38;2.13;;;;;;;10.31;72.45;100471.22;5062375;28;20049;-64
2023/01/12 05:51:16;;;;;;;10.23;3.13;;;;;;;10.31;72.31;100465.84;5073765;28;20074;-62
2023/01/12 05:53:44;;;;;;;8.30;2.28;;;;;;;10.34;72.19;100456.53;5061856;28;20065;-64
2023/01/12 05:56:18;;;;;;;10.30;4.05;;;;;;;10.37;72.05;100481.06;5059152;28;20402;-63
2023/01/12 05:58:50;;;;;;;10.35;2.67;;;;;;;10.36;72.11;100483.97;5055986;28;20053;-62
2023/01/12 06:01:18;;;;;;;10.90;3.72;;;;;;;10.54;72.05;100467.75;5054993;28;20709;-65
2023/01/12 06:03:48;;;;;;;5.70;1.77;;;;;;;10.51;71.79;100456.66;5055192;28;20053;-65
2023/01/12 06:06:17;;;;;;;5.80;1.73;;;;;;;10.49;71.77;100475.69;5063812;28;20053;-65
2023/01/12 06:08:45;;;;;;;7.20;1.67;;;;;;;10.44;72.25;100467.50;5065729;28;20396;-66
2023/01/12 06:13:56;;;;;;;7.68;2.13;;;;;;;10.36;71.96;100449.88;5047653;28;20088;-65
2023/01/12 06:16:25;;;;;;;10.13;2.13;;;;;;;10.41;72.13;100470.66;5067469;28;20052;-65
2023/01/12 06:18:53;;;;;;;9.73;2.20;;;;;;;10.42;72.25;100472.28;5059268;28;20414;-66
2023/01/12 06:21:20;;;;;;;10.00;1.50;;;;;;;10.51;72.11;100484.34;5067777;28;20044;-66
2023/01/12 06:23:48;;;;;;;7.40;1.52;;;;;;;10.54;72.05;100465.06;5059992;28;20540;-65
2023/01/12 06:26:16;;;;;;;8.75;2.38;;;;;;;10.52;72.02;100480.59;5066399;28;20068;-64
2023/01/12 06:28:44;;;;;;;8.27;1.70;;;;;;;10.47;72.17;100469.72;5063874;28;20131;-66
2023/01/12 06:31:13;;;;;;;9.32;1.85;;;;;;;10.48;72.36;100457.94;5073078;28;20112;-65
2023/01/12 06:33:42;;;;;;;6.65;1.65;;;;;;;10.43;72.58;100460.50;5064228;28;20049;-64
2023/01/12 06:36:10;;;;;;;7.10;1.80;;;;;;;10.49;72.20;100458.75;5069212;28;20044;-66
2023/01/12 06:38:39;;;;;;;5.93;1.70;;;;;;;10.49;72.41;100469.50;5071414;28;20120;-65
2023/01/12 06:42:27;;;;;;;5.53;1.70;;;;;;;10.49;72.44;100473.00;5073328;28;20152;-63
2023/01/12 06:43:56;;;;;;;6.80;1.52;;;;;;;10.56;72.01;100480.97;4384581;27;10001031;-63
2023/01/12 06:46:26;;;;;;;4.55;1.50;;;;;;;10.68;72.21;100479.13;5119473;28;20043;-66
2023/01/12 06:48:55;;;;;;;4.85;1.02;;;;;;;10.52;72.54;100480.59;5115024;27;20058;-63
2023/01/12 06:51:23;;;;;;;4.72;1.33;;;;;;;10.49;72.81;100464.94;5115183;28;20048;-65
2023/01/12 06:53:51;;;;;;;10.32;1.20;;;;;;;10.70;72.00;100485.06;5108985;27;20058;-65
2023/01/12 06:56:19;;;;;;;6.07;1.40;;;;;;;10.57;72.18;100483.41;5117027;28;20044;-63
2023/01/12 06:58:47;;;;;;;4.60;1.50;;;;;;;10.50;72.48;100481.88;5115895;28;20097;-67
2023/01/12 07:01:15;;;;;;;2.88;1.45;;;;;;;10.46;72.45;100469.97;5118091;27;20050;-67
2023/01/12 07:03:45;;;;;;;4.72;1.00;;;;;;;10.47;72.89;100479.66;5127359;27;20221;-67
2023/01/12 07:06:13;;;;;;;7.43;1.30;;;;;;;10.47;72.70;100471.59;5107667;27;20138;-67
2023/01/12 07:08:41;;;;;;;6.15;1.30;;;;;;;10.49;72.77;100494.50;5118988;27;20062;-67
2023/01/12 07:11:11;;;;;;;4.55;1.23;;;;;;;10.42;72.83;100491.91;5124914;27;20048;-67
2023/01/12 07:13:39;;;;;;;2.83;1.00;;;;;;;10.33;73.31;100473.69;5112148;27;20143;-62
2023/01/12 07:16:07;;;;;;;4.75;1.85;;;;;;;10.59;72.16;100483.19;5118613;27;20142;-67
2023/01/12 07:18:35;;;;;;;5.47;1.45;;;;;;;10.47;72.68;100485.84;5112188;27;20044;-67
2023/01/12 07:21:06;;;;;;;3.67;1.33;;;;;;;10.42;73.18;100470.41;5115009;28;20083;-67
2023/01/12 07:23:36;;;;;;;3.97;1.65;;;;;;;10.51;72.85;100502.31;5083187;28;20076;-67
2023/01/12 07:26:04;;;;;;;2.25;0.90;;;;;;;10.50;72.58;100481.88;5060910;28;20530;-67
2023/01/12 07:28:33;;;;;;;3.67;1.20;;;;;;;10.45;72.88;100487.94;5070898;28;20402;-67
2023/01/12 07:31:01;;;;;;;2.80;1.00;;;;;;;10.56;72.96;100483.66;5059407;28;20075;-66
2023/01/12 07:33:30;;;;;;;2.42;1.40;;;;;;;10.51;72.79;100483.53;5075277;28;20049;-67
2023/01/12 07:35:59;;;;;;;4.22;1.75;;;;;;;10.59;73.42;100486.69;5062839;28;20063;-65
2023/01/12 07:38:29;;;;;;;3.28;0.80;;;;;;;10.56;73.36;100491.72;5064160;28;20161;-65
2023/01/12 07:40:58;;;;;;;4.20;1.25;;;;;;;10.49;73.50;100493.69;5067908;28;20063;-65
2023/01/12 07:43:26;;;;;;;3.75;1.27;;;;;;;10.45;73.60;100501.38;5072622;28;20041;-65
2023/01/12 07:45:56;;;;;;;4.60;1.00;;;;;;;10.51;73.22;100495.09;5083548;28;20076;-65
2023/01/12 07:48:25;;;;;;;3.25;0.98;;;;;;;10.49;73.26;100493.69;5073579;28;20505;-65
2023/01/12 07:50:53;;;;;;;2.50;0.70;;;;;;;10.50;73.43;100496.13;5068935;28;20048;-65
2023/01/12 07:53:21;;;;;;;2.25;1.25;;;;;;;10.52;73.62;100494.03;5069252;28;20045;-65
2023/01/12 07:55:50;;;;;;;2.90;0.98;;;;;;;10.47;73.76;100493.09;5073184;28;20056;-65
2023/01/12 07:58:17;;;;;;;5.00;1.17;;;;;;;10.43;74.01;100490.03;5067214;28;20092;-65
2023/01/12 08:00:45;;;;;;;4.25;1.20;;;;;;;10.48;73.68;100510.84;5046713;28;20053;-65
2023/01/12 08:03:13;;;;;;;2.85;0.90;;;;;;;10.52;73.89;100514.72;5058672;28;20052;-65
2023/01/12 08:05:41;;;;;;;1.92;0.77;;;;;;;10.48;73.82;100517.03;5074625;28;20052;-65
2023/01/12 08:08:09;;;;;;;3.45;1.05;;;;;;;10.43;73.96;100517.72;5057460;28;20076;-64
2023/01/12 08:10:37;;;;;;;6.43;1.13;;;;;;;10.43;74.04;100528.47;5052070;28;20079;-64
2023/01/12 08:13:06;;;;;;;6.57;1.25;;;;;;;10.50;74.06;100532.94;5059008;28;20101;-64
2023/01/12 08:15:41;;;;;;;2.40;0.98;;;;;;;10.71;73.11;100548.53;5065248;28;20044;-64
2023/01/12 08:18:17;;;;;;;4.43;1.30;;;;;;;10.90;72.59;100539.34;5069434;28;20073;-64
2023/01/12 08:20:45;;;;;;;4.47;0.93;;;;;;;11.15;72.06;100536.44;5063570;28;20044;-64
2023/01/12 08:23:16;;;;;;;5.05;1.30;;;;;;;11.26;71.62;100551.78;5058042;28;20422;-63
2023/01/12 08:25:48;;;;;;;1.63;0.75;;;;;;;11.38;71.01;100539.13;5058327;28;20057;-64
2023/01/12 08:28:22;;;;;;;3.30;1.27;;;;;;;11.54;70.17;100532.22;5063535;28;20072;-64
2023/01/12 08:30:51;;;;;;;3.08;1.17;;;;;;;11.73;69.99;100544.50;5071573;28;20112;-64
2023/01/12 08:33:19;;;;;;;4.50;1.20;;;;;;;11.90;68.99;100533.00;5084183;28;20104;-64
2023/01/12 08:35:48;;;;;;;4.53;0.80;;;;;;;12.11;68.64;100543.13;5062483;28;20050;-64
2023/01/12 08:38:18;;;;;;;1.48;0.70;;;;;;;12.16;68.48;100534.31;5067524;28;20156;-64
2023/01/12 08:46:18;;;;;;;3.53;0.95;;;;;;;12.39;66.99;100539.59;5046821;28;20076;-65
2023/01/12 08:48:46;;;;;;;4.38;1.10;;;;;;;12.46;66.67;100548.38;5059910;28;20061;-64
2023/01/12 08:51:13;;;;;;;2.83;1.17;;;;;;;12.46;67.45;100547.53;5060485;28;20052;-62
2023/01/12 08:53:41;;;;;;;3.70;0.73;;;;;;;12.46;66.91;100551.06;5062125;28;20104;-64
2023/01/12 08:56:09;;;;;;;2.28;0.82;;;;;;;12.48;66.55;100567.81;5063008;28;20490;-64
2023/01/12 08:58:38;;;;;;;2.00;0.70;;;;;;;12.51;66.60;100569.19;5063768;28;20087;-64
2023/01/12 09:01:07;;;;;;;1.83;1.00;;;;;;;12.47;66.95;100570.75;5058934;28;20117;-64
2023/01/12 09:03:35;;;;;;;2.78;0.90;;;;;;;12.39;67.53;100561.97;5061264;28;20052;-64
2023/01/12 09:06:14;;;;;;;2.47;0.80;;;;;;;12.19;68.26;100563.47;5061916;28;20071;-64
2023/01/12 09:08:42;;;;;;;2.67;0.70;;;;;;;12.07;68.06;100568.09;5057842;28;20068;-64
2023/01/12 09:11:11;;;;;;;0.98;0.60;;;;;;;11.86;69.35;100564.97;5061080;28;20066;-64
2023/01/12 09:13:41;;;;;;;2.60;0.82;;;;;;;11.85;69.42;100570.59;5055664;28;20059;-64
2023/01/12 09:16:10;;;;;;;3.30;1.00;;;;;;;12.01;69.12;100564.47;5061163;28;20047;-63
2023/01/12 09:18:40;;;;;;;4.07;0.80;;;;;;;12.13;68.28;100589.50;5061148;28;20052;-64
2023/01/12 09:21:10;;;;;;;2.70;0.80;;;;;;;12.25;68.26;100576.78;5060813;28;20053;-64
2023/01/12 09:23:39;;;;;;;2.90;0.80;;;;;;;12.43;67.87;100580.38;5061623;28;20128;-64
2023/01/12 09:26:08;;;;;;;1.20;0.55;;;;;;;12.47;67.25;100578.81;5057987;28;20053;-64
2023/01/12 09:28:36;;;;;;;3.47;1.45;;;;;;;12.59;66.86;100579.59;5060499;28;20095;-64
2023/01/12 09:31:08;;;;;;;1.00;0.73;;;;;;;12.64;67.00;100577.00;5056400;28;20049;-64
2023/01/12 09:33:38;;;;;;;2.50;0.60;;;;;;;12.61;67.15;100583.69;5060762;28;20048;-63
2023/01/12 09:36:09;;;;;;;2.15;0.80;;;;;;;12.48;67.34;100585.84;5058325;28;20041;-63
2023/01/12 09:38:38;;;;;;;2.97;0.90;;;;;;;12.30;67.82;100595.75;5062063;28;20060;-64
2023/01/12 09:41:11;;;;;;;2.10;0.80;;;;;;;12.11;68.80;100598.88;5055957;28;20681;-64
2023/01/12 09:49:18;;;;;;;1.08;0.50;;;;;;;11.62;70.95;100599.16;4995767;28;20146;-64
2023/01/12 09:51:54;;;;;;;6.28;0.98;;;;;;;11.55;71.26;100619.97;5000230;28;20542;-63
2023/01/12 09:54:22;;;;;;;4.30;1.17;;;;;;;11.50;71.29;100613.66;5000671;28;20046;-64
2023/01/12 09:57:06;;;;;;;2.08;0.85;;;;;;;11.46;71.67;100623.25;5002928;28;20064;-63
2023/01/12 09:59:45;;;;;;;3.53;1.23;;;;;;;11.42;71.59;100620.22;4995149;28;20521;-64
2023/01/12 10:02:15;;;;;;;1.52;0.90;;;;;;;11.38;72.35;100619.03;4998993;28;20074;-63
2023/01/12 10:04:44;;;;;;;2.17;0.82;;;;;;;11.42;71.71;100625.59;4997233;28;20038;-64
2023/01/12 10:07:14;;;;;;;3.53;1.58;;;;;;;11.59;71.48;100636.50;5008374;28;20042;-64
2023/01/12 10:09:43;;;;;;;2.65;1.20;;;;;;;11.75;70.82;100630.41;5005963;28;20073;-63
2023/01/12 10:12:19;;;;;;;2.45;0.70;;;;;;;11.99;69.81;100623.97;4996421;28;20063;-63
2023/01/12 10:15:03;;;;;;;0.95;0.52;;;;;;;12.17;69.67;100616.75;5006626;28;20062;-64
2023/01/12 10:17:40;;;;;;;1.35;0.88;;;;;;;12.27;68.92;100619.66;5010327;28;20049;-64
2023/01/12 10:20:26;;;;;;;2.90;1.00;;;;;;;12.45;69.26;100626.75;5002417;28;20092;-64
2023/01/12 10:23:01;;;;;;;3.55;0.90;;;;;;;12.44;69.17;100633.22;5014321;28;20119;-65
2023/01/12 10:25:37;;;;;;;2.22;0.68;;;;;;;12.30;69.36;100630.78;5066534;28;20144;-64
2023/01/12 10:28:13;;;;;;;3.50;0.90;;;;;;;12.15;69.95;100632.34;5063318;28;20058;-63
2023/01/12 10:30:42;;;;;;;2.22;0.55;;;;;;;12.01;70.74;100629.13;5065826;28;20140;-64
2023/01/12 10:33:14;;;;;;;2.30;0.75;;;;;;;11.87;71.62;100628.56;5062262;28;20084;-63
2023/01/12 10:35:57;;;;;;;2.20;0.80;;;;;;;11.78;72.03;100631.84;5064420;28;20107;-63
2023/01/12 10:38:28;;;;;;;0.95;0.52;;;;;;;11.77;71.47;100627.47;5069970;28;20095;-63
2023/01/12 10:41:05;;;;;;;1.27;0.50;;;;;;;11.67;72.22;100636.97;5069087;28;20072;-64
2023/01/12 10:43:33;;;;;;;1.45;0.50;;;;;;;11.59;72.79;100629.22;5065794;28;20067;-63
2023/01/12 10:46:22;;;;;;;2.72;0.95;;;;;;;11.62;72.38;100634.16;5057466;28;20132;-65
2023/01/12 10:48:53;;;;;;;4.18;0.80;;;;;;;11.53;73.09;100627.47;5059953;28;20149;-65
2023/01/12 10:51:28;;;;;;;0.38;0.35;;;;;;;11.44;73.44;100620.78;5067757;28;20052;-66
2023/01/12 10:54:00;;;;;;;2.65;0.50;;;;;;;11.40;73.57;100633.06;5066175;28;20059;-65
2023/01/12 10:56:34;;;;;;;1.17;0.63;;;;;;;11.37;73.35;100626.28;5050712;28;20116;-65
2023/01/12 10:59:03;;;;;;;0.85;0.63;;;;;;;11.35;73.53;100620.31;5070101;28;20143;-65
2023/01/12 11:01:46;;;;;;;1.10;0.50;;;;;;;11.33;73.97;100622.44;5064454;28;20056;-65
2023/01/12 11:04:19;;;;;;;0.93;0.40;;;;;;;11.36;73.55;100626.53;5054513;28;20693;-65
2023/01/12 11:06:57;;;;;;;1.92;0.82;;;;;;;11.28;74.22;100622.31;5061984;28;20112;-65
2023/01/12 11:09:26;;;;;;;2.63;0.55;;;;;;;11.23;73.98;100621.34;5070965;28;20469;-65
2023/01/12 11:11:56;;;;;;;0.80;0.50;;;;;;;11.34;73.68;100625.94;5054865;28;20136;-66
2023/01/12 11:14:34;;;;;;;1.73;0.70;;;;;;;11.32;73.99;100622.66;5062856;28;20458;-65
2023/01/12 11:17:22;;;;;;;1.63;0.57;;;;;;;11.42;73.72;100617.53;5067931;28;20049;-65
2023/01/12 11:19:52;;;;;;;3.15;0.65;;;;;;;11.60;73.30;100616.59;5063035;28;20048;-65
2023/01/12 11:22:26;;;;;;;1.75;0.63;;;;;;;11.79;72.74;100614.63;5067033;28;20041;-65
2023/01/12 11:24:58;;;;;;;2.20;1.02;;;;;;;11.96;72.27;100612.84;5055224;28;20050;-65
2023/01/12 11:27:33;;;;;;;1.95;0.70;;;;;;;12.09;71.80;100604.50;5057661;28;20641;-66
2023/01/12 11:30:11;;;;;;;1.48;0.60;;;;;;;12.27;71.49;100612.41;5066658;28;20057;-66
2023/01/12 11:32:43;;;;;;;0.40;0.40;;;;;;;12.45;70.33;100608.72;5077378;28;20076;-65
2023/01/12 11:35:26;;;;;;;1.83;0.70;;;;;;;12.61;69.40;100601.75;5083480;28;20546;-65
2023/01/12 11:37:59;;;;;;;0.88;0.57;;;;;;;12.61;69.67;100601.75;5076424;28;20052;-65
2023/01/12 11:40:31;;;;;;;0.95;0.60;;;;;;;12.46;70.10;100604.16;5064776;28;20105;-65
2023/01/12 11:46:03;;;;;;;4.10;0.70;;;;;;;12.16;71.33;100599.78;5082264;28;20052;-65
2023/01/12 11:48:42;;;;;;;0.57;0.40;;;;;;;12.04;71.67;100601.72;5051524;28;20056;-66
2023/01/12 11:51:13;;;;;;;1.08;0.70;;;;;;;11.92;71.97;100595.53;5065283;28;20351;-65
2023/01/12 11:53:41;;;;;;;1.48;0.55;;;;;;;11.78;72.27;100581.50;5069785;28;20041;-64
2023/01/12 11:56:23;;;;;;;3.53;1.30;;;;;;;11.80;73.21;100594.72;5065190;28;20080;-64
2023/01/12 11:59:01;;;;;;;1.83;0.40;;;;;;;11.80;72.92;100592.03;5063234;28;20072;-64
2023/01/12 12:01:36;;;;;;;0.40;0.40;;;;;;;11.71;73.23;100586.16;5054516;28;20072;-65
2023/01/12 12:04:12;;;;;;;2.70;0.60;;;;;;;11.67;73.17;100595.75;5076234;28;20072;-64
2023/01/12 12:06:56;;;;;;;1.30;0.63;;;;;;;11.58;73.82;100587.22;5074508;28;20096;-64
2023/01/12 12:10:00;;;;;;;0.82;0.47;;;;;;;11.44;73.71;100576.94;5065117;28;20053;-64
2023/01/12 12:12:39;;;;;;;0.57;0.50;;;;;;;11.54;73.94;100591.44;5072565;28;20140;-64
2023/01/12 12:15:22;;;;;;;0.93;0.63;;;;;;;11.47;74.29;100595.28;5066745;28;20068;-64
2023/01/12 12:18:03;;;;;;;1.20;0.60;;;;;;;11.44;74.18;100580.44;5055837;28;20045;-64
2023/01/12 12:20:38;;;;;;;2.95;0.50;;;;;;;11.46;74.33;100583.72;5060804;28;20076;-65